Time;durP1;ratioP1;P1;durP2;ratioP2;P2;SDS_P1;SDS_P2;PMS_P1;PMS_P2;Temp;Humidity;BMP_temperature;BMP_pressure;BME280_temperature;BME280_humidity;BME280_pressure;Samples;Min_cycle;Max_cycle;Signal;HPM_P1;HPM_P2
2022/01/02 00:01:18;;;;;;;4.85;2.50;;;6.30;98.00;;;;;;5032236;28;20041;-65
2022/01/02 00:03:51;;;;;;;5.00;2.80;;;6.10;98.00;;;;;;5023598;28;20037;-66
2022/01/02 00:06:25;;;;;;;5.90;2.58;;;5.90;98.00;;;;;;5035558;28;20028;-66
2022/01/02 00:08:55;;;;;;;;;;;5.80;97.30;;;;;;5026714;28;20355;-66
2022/01/02 00:11:24;;;;;;;5.03;2.67;;;5.80;97.30;;;;;;5030043;28;19916;-66
2022/01/02 00:13:59;;;;;;;4.82;2.33;;;5.80;96.90;;;;;;5033359;28;20381;-65
2022/01/02 00:16:27;;;;;;;4.38;1.80;;;5.80;96.80;;;;;;5032616;28;20036;-65
2022/01/02 00:19:06;;;;;;;3.47;1.88;;;5.70;96.70;;;;;;5033201;28;20049;-65
2022/01/02 00:21:33;;;;;;;2.92;1.40;;;5.80;95.50;;;;;;5029906;28;20028;-65
2022/01/02 00:24:06;;;;;;;2.70;1.30;;;6.10;95.60;;;;;;5029583;28;20021;-65
2022/01/02 00:26:42;;;;;;;3.17;1.48;;;6.30;96.10;;;;;;5028853;28;20018;-65
2022/01/02 00:29:08;;;;;;;3.67;1.73;;;6.50;97.30;;;;;;5027844;28;20056;-65
2022/01/02 00:31:35;;;;;;;3.05;1.40;;;6.60;98.00;;;;;;5027696;28;20030;-65
2022/01/02 00:34:03;;;;;;;3.85;1.20;;;6.70;98.00;;;;;;5018154;28;20026;-65
2022/01/02 00:36:29;;;;;;;1.95;1.10;;;6.80;98.00;;;;;;5029898;28;20018;-65
2022/01/02 00:38:55;;;;;;;4.18;2.03;;;6.90;98.00;;;;;;5036532;28;20044;-65
2022/01/02 00:41:33;;;;;;;5.50;2.65;;;6.80;98.00;;;;;;5036263;28;20017;-65
2022/01/02 00:44:22;;;;;;;5.32;2.80;;;6.40;98.00;;;;;;5036125;28;20021;-65
2022/01/02 00:47:11;;;;;;;7.55;4.05;;;6.20;98.00;;;;;;5034634;28;20143;-65
2022/01/02 00:49:54;;;;;;;6.82;3.08;;;5.60;98.00;;;;;;5036247;28;20028;-66
2022/01/02 00:52:21;;;;;;;4.60;2.45;;;5.30;98.00;;;;;;5034720;28;20326;-65
2022/01/02 00:54:47;;;;;;;5.57;2.55;;;5.10;98.00;;;;;;5036038;28;20029;-65
2022/01/02 00:57:17;;;;;;;4.10;2.20;;;5.00;98.00;;;;;;5017801;28;20048;-65
2022/01/02 01:00:06;;;;;;;4.40;1.92;;;4.90;97.50;;;;;;5036115;28;20026;-65
2022/01/02 01:02:43;;;;;;;2.92;1.42;;;5.10;95.90;;;;;;5034912;28;20072;-65
2022/01/02 01:05:09;;;;;;;3.53;1.50;;;5.50;95.40;;;;;;5035829;28;20065;-66
2022/01/02 01:07:38;;;;;;;4.97;2.55;;;5.50;95.70;;;;;;5036009;28;20026;-65
2022/01/02 01:10:08;;;;;;;3.13;1.70;;;5.40;97.10;;;;;;5035179;28;20449;-65
2022/01/02 01:12:34;;;;;;;2.60;1.40;;;5.20;96.70;;;;;;5035595;28;20029;-65
2022/01/02 01:15:01;;;;;;;3.60;1.83;;;5.10;96.80;;;;;;5035573;28;20101;-65
2022/01/02 01:17:28;;;;;;;4.88;1.90;;;5.00;96.30;;;;;;5030520;28;20079;-65
2022/01/02 01:19:55;;;;;;;2.90;1.40;;;4.90;96.70;;;;;;5032077;28;20037;-65
2022/01/02 01:22:21;;;;;;;1.45;0.98;;;4.90;95.00;;;;;;5034759;28;20099;-65
2022/01/02 01:24:47;;;;;;;1.98;1.10;;;5.20;93.40;;;;;;5035653;28;20101;-65
2022/01/02 01:27:14;;;;;;;3.50;1.67;;;5.60;93.40;;;;;;5001601;28;20033;-65
2022/01/02 01:29:40;;;;;;;2.90;1.33;;;5.70;94.50;;;;;;5035947;28;20028;-65
2022/01/02 01:32:07;;;;;;;3.45;1.65;;;6.00;96.30;;;;;;5034054;28;20041;-65
2022/01/02 01:34:33;;;;;;;3.42;1.42;;;6.30;97.10;;;;;;5035538;28;20318;-65
2022/01/02 01:37:01;;;;;;;1.73;0.93;;;6.50;98.00;;;;;;5034538;28;20029;-65
2022/01/02 01:39:27;;;;;;;2.25;0.90;;;6.40;98.00;;;;;;5035044;28;20109;-65
2022/01/02 01:41:54;;;;;;;1.50;0.98;;;6.40;98.00;;;;;;5035473;28;20126;-65
2022/01/02 01:44:28;;;;;;;4.00;0.80;;;6.50;98.00;;;;;;5035453;28;20034;-65
2022/01/02 01:46:55;;;;;;;0.98;0.80;;;6.80;98.00;;;;;;5033126;28;20048;-65
2022/01/02 01:49:26;;;;;;;1.67;0.93;;;7.20;98.00;;;;;;5014610;28;20506;-65
2022/01/02 01:51:53;;;;;;;2.78;0.88;;;7.10;98.00;;;;;;5034896;28;20480;-65
2022/01/02 01:54:20;;;;;;;1.85;0.80;;;6.80;98.00;;;;;;5026498;28;20029;-65
2022/01/02 01:56:48;;;;;;;2.20;0.90;;;6.80;98.00;;;;;;5032160;28;20315;-64
2022/01/02 01:59:17;;;;;;;1.58;1.00;;;6.80;98.00;;;;;;5032417;28;20022;-65
2022/01/02 02:01:43;;;;;;;2.53;0.80;;;6.60;98.00;;;;;;5032778;28;20034;-65
2022/01/02 02:04:09;;;;;;;2.38;1.10;;;6.40;98.00;;;;;;5034543;28;20021;-65
2022/01/02 02:06:36;;;;;;;2.17;1.00;;;6.30;98.00;;;;;;5035148;28;20313;-65
2022/01/02 02:09:04;;;;;;;1.65;0.90;;;6.10;98.00;;;;;;5027852;28;20079;-65
2022/01/02 02:11:30;;;;;;;2.17;1.10;;;6.20;98.00;;;;;;5034100;28;20415;-65
2022/01/02 02:13:56;;;;;;;3.00;0.90;;;6.00;98.00;;;;;;5035522;28;20032;-65
2022/01/02 02:16:24;;;;;;;1.80;0.90;;;6.00;98.00;;;;;;5033951;28;20029;-65
2022/01/02 02:18:50;;;;;;;1.30;0.90;;;6.20;98.00;;;;;;5033522;28;20037;-66
2022/01/02 02:21:16;;;;;;;1.33;0.90;;;6.20;98.00;;;;;;5034715;28;20037;-65
2022/01/02 02:23:44;;;;;;;0.90;0.70;;;6.40;98.00;;;;;;5034685;28;20117;-65
2022/01/02 02:26:10;;;;;;;1.17;0.90;;;6.50;98.00;;;;;;5033614;28;20022;-65
2022/01/02 02:28:36;;;;;;;1.77;0.98;;;6.40;98.00;;;;;;5035222;28;20104;-65
2022/01/02 02:31:02;;;;;;;2.15;1.00;;;6.20;98.00;;;;;;5033093;28;20447;-65
2022/01/02 02:33:30;;;;;;;1.40;0.90;;;6.40;98.00;;;;;;5016081;28;20037;-65
2022/01/02 02:35:56;;;;;;;1.48;0.90;;;6.40;98.00;;;;;;5034193;28;20064;-65
2022/01/02 02:38:22;;;;;;;1.85;1.00;;;6.50;98.00;;;;;;5035043;28;20025;-65
2022/01/02 02:40:49;;;;;;;0.90;0.70;;;6.60;98.00;;;;;;5034257;28;20303;-65
2022/01/02 02:54:06;;;;;;;2.35;0.90;;;7.10;98.00;;;;;;5034034;28;20033;-65
2022/01/02 02:56:55;;;;;;;1.27;0.82;;;7.10;98.00;;;;;;5016642;28;20028;-65
2022/01/02 02:59:25;;;;;;;1.42;0.90;;;7.00;98.00;;;;;;5036832;28;20018;-65
2022/01/02 03:01:51;;;;;;;1.20;0.80;;;7.00;98.00;;;;;;5037218;28;20048;-65
2022/01/02 03:04:21;;;;;;;1.13;0.80;;;7.00;98.00;;;;;;5037938;28;20112;-65
2022/01/02 03:06:47;;;;;;;1.10;0.80;;;7.00;98.00;;;;;;5037920;28;20049;-65
2022/01/02 03:09:15;;;;;;;2.40;0.90;;;7.10;98.00;;;;;;5037230;28;20021;-65
2022/01/02 03:11:42;;;;;;;1.50;0.80;;;7.30;98.00;;;;;;5038176;28;20049;-65
2022/01/02 03:14:12;;;;;;;1.63;0.90;;;7.20;98.00;;;;;;5037682;28;20033;-65
2022/01/02 03:16:38;;;;;;;0.80;0.75;;;7.30;98.00;;;;;;5033840;28;20292;-66
2022/01/02 03:19:05;;;;;;;1.95;1.00;;;7.20;98.00;;;;;;5037386;28;20044;-65
2022/01/02 03:21:31;;;;;;;1.88;1.00;;;7.20;98.00;;;;;;5037814;28;20033;-65
2022/01/02 03:23:57;;;;;;;1.40;0.90;;;7.10;98.00;;;;;;5037546;28;20020;-65
2022/01/02 03:26:24;;;;;;;1.40;0.90;;;7.00;98.00;;;;;;5037141;28;20025;-66
2022/01/02 03:28:50;;;;;;;1.52;0.90;;;7.00;98.00;;;;;;5038098;28;20287;-65
2022/01/02 03:31:16;;;;;;;2.03;0.90;;;7.10;98.00;;;;;;5036531;28;20108;-65
2022/01/02 03:33:42;;;;;;;1.75;0.90;;;7.30;98.00;;;;;;5036880;28;20041;-66
2022/01/02 03:36:08;;;;;;;1.23;0.80;;;7.50;98.00;;;;;;5035783;28;20025;-65
2022/01/02 03:38:34;;;;;;;1.73;0.98;;;7.50;98.00;;;;;;5033672;28;20034;-65
2022/01/02 03:41:00;;;;;;;1.48;0.80;;;7.40;98.00;;;;;;5036791;28;20037;-65
2022/01/02 03:43:26;;;;;;;1.55;0.90;;;7.50;98.00;;;;;;5036177;28;20076;-65
2022/01/02 03:45:53;;;;;;;2.83;0.90;;;7.60;98.00;;;;;;5017917;28;20054;-65
2022/01/02 03:48:19;;;;;;;1.05;0.80;;;7.70;98.00;;;;;;5022638;28;20313;-65
2022/01/02 03:50:45;;;;;;;1.33;0.90;;;7.90;98.00;;;;;;5037705;28;20017;-65
2022/01/02 03:53:12;;;;;;;1.38;0.93;;;8.00;97.70;;;;;;5037243;28;20041;-65
2022/01/02 03:55:39;;;;;;;2.55;0.90;;;7.90;97.50;;;;;;5037115;28;20025;-65
2022/01/02 03:58:05;;;;;;;1.42;1.00;;;7.80;97.20;;;;;;5019916;28;20450;-65
2022/01/02 04:00:31;;;;;;;2.42;1.05;;;7.70;97.50;;;;;;5037483;28;20029;-65
2022/01/02 04:02:57;;;;;;;2.88;1.05;;;7.60;97.30;;;;;;5034771;28;20111;-65
2022/01/02 04:05:23;;;;;;;3.53;1.10;;;7.60;96.80;;;;;;5019484;28;20441;-65
2022/01/02 04:07:49;;;;;;;2.05;1.15;;;7.50;96.50;;;;;;5037176;28;20032;-65
2022/01/02 04:10:18;;;;;;;2.40;1.17;;;7.30;97.50;;;;;;5028348;28;20026;-65
2022/01/02 04:12:44;;;;;;;2.55;1.05;;;7.30;97.60;;;;;;5017303;28;20030;-65
2022/01/02 04:15:13;;;;;;;2.13;1.20;;;7.30;97.10;;;;;;5035686;28;20378;-65
2022/01/02 04:17:40;;;;;;;2.13;1.00;;;7.30;97.00;;;;;;5018476;28;20026;-65
2022/01/02 04:20:08;;;;;;;6.07;1.38;;;7.20;97.30;;;;;;5036876;28;20083;-65
2022/01/02 04:22:34;;;;;;;2.15;1.10;;;7.00;98.00;;;;;;5036694;28;20068;-65
2022/01/02 04:25:03;;;;;;;2.88;1.38;;;6.80;97.50;;;;;;5036015;28;20422;-65
2022/01/02 04:27:29;;;;;;;2.47;1.40;;;6.70;97.60;;;;;;5036486;28;20029;-65
2022/01/02 04:29:55;;;;;;;3.78;1.40;;;6.40;98.00;;;;;;5036918;28;20024;-65
2022/01/02 04:32:22;;;;;;;3.10;1.52;;;6.00;98.00;;;;;;5035162;28;20084;-65
2022/01/02 04:34:50;;;;;;;3.35;1.52;;;5.70;98.00;;;;;;5015857;28;20104;-65
2022/01/02 04:37:16;;;;;;;3.35;1.50;;;5.40;98.00;;;;;;5025087;28;20083;-65
2022/01/02 04:39:42;;;;;;;4.45;1.60;;;5.10;98.00;;;;;;5036469;28;20457;-65
2022/01/02 04:42:08;;;;;;;3.58;1.90;;;4.90;98.00;;;;;;5035947;28;20373;-65
2022/01/02 04:44:35;;;;;;;6.32;2.67;;;4.70;98.00;;;;;;5036012;28;20041;-65
2022/01/02 04:47:01;;;;;;;5.07;2.45;;;4.60;98.00;;;;;;5034708;28;20025;-66
2022/01/02 04:49:27;;;;;;;6.65;2.35;;;4.50;98.00;;;;;;5020670;28;20045;-65
2022/01/02 04:51:54;;;;;;;7.35;2.42;;;4.50;98.00;;;;;;5035909;28;20380;-65
2022/01/02 04:54:21;;;;;;;3.70;1.80;;;4.30;98.00;;;;;;5035625;28;20397;-65
2022/01/02 04:56:47;;;;;;;4.20;1.90;;;4.30;98.00;;;;;;5035866;28;20060;-65
2022/01/02 04:59:13;;;;;;;4.20;1.70;;;4.20;98.00;;;;;;5035567;28;20303;-66
2022/01/02 05:01:39;;;;;;;3.70;2.00;;;4.10;98.00;;;;;;5035678;28;20018;-66
2022/01/02 05:04:05;;;;;;;3.85;1.80;;;4.00;98.00;;;;;;5034997;28;20304;-65
2022/01/02 05:06:31;;;;;;;4.50;1.70;;;3.90;98.00;;;;;;5018847;28;20336;-65
2022/01/02 05:08:57;;;;;;;3.30;1.75;;;3.80;98.00;;;;;;5035578;28;20025;-65
2022/01/02 05:11:22;;;;;;;3.58;1.77;;;4.00;98.00;;;;;;5036363;28;20117;-65
2022/01/02 05:13:48;;;;;;;4.63;1.80;;;4.10;98.00;;;;;;5017978;28;20057;-65
2022/01/02 05:16:14;;;;;;;5.65;2.00;;;4.00;98.00;;;;;;5035729;28;20033;-65
2022/01/02 05:18:40;;;;;;;5.13;2.05;;;3.90;98.00;;;;;;5034855;28;20355;-66
2022/01/02 05:21:06;;;;;;;3.28;1.92;;;3.80;98.00;;;;;;5035281;28;20022;-65
2022/01/02 05:23:32;;;;;;;4.13;1.67;;;3.80;98.00;;;;;;5034920;28;20034;-65
2022/01/02 05:26:00;;;;;;;2.92;1.40;;;4.20;98.00;;;;;;5035525;28;20087;-65
2022/01/02 05:28:27;;;;;;;3.17;1.65;;;4.70;98.00;;;;;;5036092;28;20025;-65
2022/01/02 05:30:53;;;;;;;3.03;1.60;;;5.10;98.00;;;;;;5017519;28;20048;-66
2022/01/02 05:33:19;;;;;;;2.70;1.40;;;5.40;98.00;;;;;;5030248;28;20040;-65
2022/01/02 05:35:44;;;;;;;3.13;1.60;;;5.60;98.00;;;;;;5036000;28;20096;-65
2022/01/02 05:38:10;;;;;;;3.40;1.60;;;5.70;98.00;;;;;;5035286;28;20029;-65
2022/01/02 05:40:36;;;;;;;2.75;1.48;;;5.80;98.00;;;;;;5035504;28;20433;-66
2022/01/02 05:43:04;;;;;;;2.95;1.50;;;6.10;97.20;;;;;;5017501;28;20044;-65
2022/01/02 05:45:31;;;;;;;4.70;1.85;;;6.10;97.30;;;;;;5035661;28;20021;-65
2022/01/02 05:47:57;;;;;;;4.13;1.70;;;6.00;97.70;;;;;;5034124;28;20029;-65
2022/01/02 05:50:24;;;;;;;4.32;2.05;;;6.10;97.00;;;;;;5035528;28;20017;-65
2022/01/02 05:52:50;;;;;;;4.43;1.80;;;6.20;96.50;;;;;;5034688;28;20353;-66
2022/01/02 05:55:16;;;;;;;3.00;1.63;;;6.20;96.70;;;;;;5035668;28;20129;-65
2022/01/02 05:57:43;;;;;;;5.00;2.75;;;6.20;97.10;;;;;;5035202;28;20151;-66
2022/01/02 06:00:09;;;;;;;6.63;3.85;;;6.10;97.00;;;;;;5035005;28;20026;-66
2022/01/02 06:02:36;;;;;;;4.38;1.77;;;6.00;97.20;;;;;;5033578;28;20037;-66
2022/01/02 06:05:06;;;;;;;3.08;1.60;;;5.90;96.70;;;;;;5035225;28;20500;-65
2022/01/02 06:07:33;;;;;;;6.88;3.42;;;6.00;96.80;;;;;;5035280;28;20430;-65
2022/01/02 06:09:59;;;;;;;5.43;2.65;;;6.20;96.10;;;;;;5030126;28;20037;-65
2022/01/02 06:12:25;;;;;;;11.80;6.25;;;6.30;95.10;;;;;;5035222;28;20025;-66
2022/01/02 06:14:52;;;;;;;5.60;3.00;;;6.50;94.70;;;;;;5034839;28;20481;-66
2022/01/02 06:17:18;;;;;;;5.97;3.53;;;6.70;93.70;;;;;;5034005;28;20079;-65
2022/01/02 06:19:44;;;;;;;4.45;2.50;;;6.60;94.50;;;;;;5035292;28;20466;-65
2022/01/02 06:22:10;;;;;;;5.32;2.72;;;6.40;95.00;;;;;;5035015;28;20041;-65
2022/01/02 06:24:36;;;;;;;5.43;2.72;;;6.10;96.10;;;;;;5017696;28;20080;-65
2022/01/02 06:27:01;;;;;;;4.88;2.80;;;5.90;97.00;;;;;;5034784;28;20590;-65
2022/01/02 06:29:27;;;;;;;5.72;2.88;;;5.70;97.90;;;;;;5033872;28;20026;-65
2022/01/02 06:31:53;;;;;;;7.13;3.35;;;5.50;98.00;;;;;;5016123;28;20036;-65
2022/01/02 06:34:20;;;;;;;8.48;5.30;;;5.40;98.00;;;;;;5037125;28;20037;-66
2022/01/02 06:36:46;;;;;;;4.95;2.50;;;5.30;98.00;;;;;;5039153;28;20029;-65
2022/01/02 06:39:12;;;;;;;7.05;4.20;;;5.40;98.00;;;;;;5039035;28;20317;-65
2022/01/02 06:41:38;;;;;;;6.68;3.88;;;5.70;97.00;;;;;;5038362;28;20021;-65
2022/01/02 06:44:04;;;;;;;5.25;3.00;;;5.70;97.50;;;;;;5037528;28;20029;-65
2022/01/02 06:46:30;;;;;;;4.45;2.60;;;5.60;98.00;;;;;;5036689;28;20032;-65
2022/01/02 06:48:56;;;;;;;5.82;2.80;;;5.40;98.00;;;;;;5034657;28;20034;-65
2022/01/02 06:51:22;;;;;;;4.85;2.55;;;5.40;98.00;;;;;;5037853;28;20071;-64
2022/01/02 06:53:48;;;;;;;5.13;2.47;;;5.30;98.00;;;;;;5038657;28;20418;-65
2022/01/02 06:56:13;;;;;;;3.88;2.00;;;5.30;98.00;;;;;;5038374;28;20116;-65
2022/01/02 06:58:40;;;;;;;4.38;2.40;;;5.20;98.00;;;;;;5038009;28;20063;-65
2022/01/02 07:01:06;;;;;;;3.65;2.10;;;5.10;98.00;;;;;;5038465;28;20064;-65
2022/01/02 07:03:33;;;;;;;4.03;2.13;;;5.00;98.00;;;;;;5036983;28;20037;-65
2022/01/02 07:06:00;;;;;;;14.30;9.50;;;5.00;98.00;;;;;;5038778;28;20418;-65
2022/01/02 07:08:28;;;;;;;12.18;7.00;;;5.10;98.00;;;;;;5037993;28;20268;-65
2022/01/02 07:10:57;;;;;;;11.57;5.82;;;5.10;98.00;;;;;;5038398;28;20100;-65
2022/01/02 07:13:23;;;;;;;10.45;6.15;;;5.10;98.00;;;;;;5037342;28;20079;-65
2022/01/02 07:15:50;;;;;;;11.40;5.60;;;5.10;98.00;;;;;;5037322;28;20033;-65
2022/01/02 07:18:16;;;;;;;9.70;5.45;;;5.20;98.00;;;;;;5036410;28;20144;-65
2022/01/02 07:20:42;;;;;;;10.30;6.30;;;5.20;98.00;;;;;;5037803;28;20441;-65
2022/01/02 07:23:08;;;;;;;9.85;6.18;;;5.20;98.00;;;;;;5020719;28;20037;-65
2022/01/02 07:25:35;;;;;;;9.45;5.45;;;5.10;98.00;;;;;;5029397;28;20056;-65
2022/01/02 07:28:01;;;;;;;8.30;4.78;;;5.10;98.00;;;;;;5020698;28;20033;-65
2022/01/02 07:30:26;;;;;;;7.03;3.80;;;5.20;98.00;;;;;;5035074;28;20021;-65
2022/01/02 07:32:52;;;;;;;5.65;3.20;;;5.20;98.00;;;;;;5036735;28;20108;-65
2022/01/02 07:35:18;;;;;;;5.55;3.35;;;5.30;98.00;;;;;;5020007;28;20087;-65
2022/01/02 07:37:44;;;;;;;6.00;3.20;;;5.40;98.00;;;;;;5037745;28;20393;-65
2022/01/02 07:40:10;;;;;;;4.60;2.25;;;5.50;98.00;;;;;;5019375;28;20057;-65
2022/01/02 07:42:37;;;;;;;4.32;2.30;;;5.60;98.00;;;;;;5037511;28;20063;-66
2022/01/02 07:45:03;;;;;;;4.90;2.20;;;5.70;98.00;;;;;;5035545;28;20029;-66
2022/01/02 07:47:29;;;;;;;3.78;2.00;;;5.80;98.00;;;;;;5036455;28;20017;-65
2022/01/02 07:49:55;;;;;;;6.45;3.70;;;6.10;98.00;;;;;;5020148;28;20445;-64
2022/01/02 07:52:21;;;;;;;6.57;3.40;;;6.40;97.00;;;;;;5036893;28;20033;-66
2022/01/02 07:54:47;;;;;;;3.83;2.00;;;6.70;95.80;;;;;;5019777;28;20112;-65
2022/01/02 07:57:12;;;;;;;4.60;2.50;;;7.00;92.90;;;;;;5037571;28;20025;-66
2022/01/02 07:59:38;;;;;;;5.50;3.22;;;7.50;87.60;;;;;;5037158;28;20061;-65
2022/01/02 08:02:04;;;;;;;4.97;3.00;;;8.00;89.00;;;;;;5036137;28;20442;-66
2022/01/02 08:04:30;;;;;;;13.90;8.98;;;7.90;91.30;;;;;;5037414;28;20097;-65
2022/01/02 08:06:56;;;;;;;10.38;6.80;;;7.70;92.10;;;;;;5036680;28;20064;-65
2022/01/02 08:09:22;;;;;;;21.15;17.80;;;7.50;93.00;;;;;;5036859;28;20026;-65
2022/01/02 08:11:49;;;;;;;19.90;16.52;;;7.30;93.70;;;;;;5036966;28;20029;-65
2022/01/02 08:14:16;;;;;;;24.27;17.48;;;7.20;94.00;;;;;;5037223;28;20416;-65
2022/01/02 08:16:43;;;;;;;24.60;14.63;;;7.20;94.70;;;;;;5036561;28;20438;-66
2022/01/02 08:19:10;;;;;;;20.48;10.90;;;7.20;94.50;;;;;;5035055;28;20103;-66
2022/01/02 08:21:36;;;;;;;35.58;21.73;;;7.00;95.00;;;;;;5035674;28;20032;-65
2022/01/02 08:24:02;;;;;;;56.17;34.13;;;7.00;94.90;;;;;;5036484;28;20418;-65
2022/01/02 08:26:29;;;;;;;16.65;10.45;;;7.00;96.00;;;;;;5036562;28;20029;-65
2022/01/02 08:28:55;;;;;;;6.75;3.40;;;7.00;95.30;;;;;;5034981;28;20410;-65
2022/01/02 08:31:21;;;;;;;5.82;3.25;;;7.20;92.30;;;;;;5036648;28;20095;-65
2022/01/02 08:33:48;;;;;;;3.42;1.70;;;7.50;91.30;;;;;;5035249;28;20430;-65
2022/01/02 08:36:15;;;;;;;18.02;10.65;;;7.80;90.10;;;;;;5031106;28;20073;-65
2022/01/02 08:38:41;;;;;;;4.03;1.95;;;8.00;90.70;;;;;;5035918;28;20029;-65
2022/01/02 08:41:06;;;;;;;3.50;1.90;;;8.20;87.90;;;;;;5027430;28;20288;-66
2022/01/02 08:43:34;;;;;;;3.15;1.42;;;8.80;85.00;;;;;;5035898;28;20029;-65
2022/01/02 08:46:00;;;;;;;4.65;2.65;;;8.90;83.50;;;;;;5036169;28;20087;-65
2022/01/02 08:48:26;;;;;;;4.43;2.00;;;9.00;87.10;;;;;;5033221;28;20025;-65
2022/01/02 08:50:52;;;;;;;5.78;2.25;;;9.40;85.90;;;;;;5036159;28;20422;-65
2022/01/02 08:53:19;;;;;;;11.70;8.65;;;10.40;84.60;;;;;;5035573;28;20045;-66
2022/01/02 08:55:45;;;;;;;5.05;2.38;;;11.50;81.70;;;;;;5035879;28;20358;-66
2022/01/02 08:58:11;;;;;;;4.15;2.05;;;12.80;79.30;;;;;;5035443;28;20033;-66
2022/01/02 09:00:37;;;;;;;3.92;1.50;;;13.80;75.70;;;;;;5034609;28;20033;-65
2022/01/02 09:03:03;;;;;;;4.30;1.00;;;13.60;73.00;;;;;;5016566;28;20033;-66
2022/01/02 09:05:29;;;;;;;5.15;2.70;;;13.70;67.10;;;;;;5017378;28;20430;-66
2022/01/02 09:07:56;;;;;;;3.20;1.70;;;13.60;71.70;;;;;;5018258;28;20033;-66
2022/01/02 09:10:22;;;;;;;4.50;2.13;;;13.40;70.80;;;;;;5035554;28;20029;-65
2022/01/02 09:12:48;;;;;;;4.55;2.15;;;13.10;71.60;;;;;;5035802;28;20018;-66
2022/01/02 09:15:14;;;;;;;6.38;3.25;;;12.90;72.10;;;;;;5017126;28;20115;-66
2022/01/02 09:17:40;;;;;;;8.48;4.47;;;13.30;74.90;;;;;;5034453;28;20021;-66
2022/01/02 09:20:08;;;;;;;5.50;2.40;;;14.20;74.60;;;;;;5018440;28;20072;-66
2022/01/02 09:22:36;;;;;;;10.60;5.75;;;15.10;73.00;;;;;;5035645;28;20033;-66
2022/01/02 09:25:04;;;;;;;8.15;4.47;;;15.70;70.10;;;;;;5035555;28;20048;-66
2022/01/02 09:27:30;;;;;;;8.18;4.93;;;15.20;69.60;;;;;;5030990;28;20029;-66
2022/01/02 09:29:56;;;;;;;5.95;2.90;;;14.40;70.50;;;;;;5034857;28;20029;-66
2022/01/02 09:32:22;;;;;;;6.38;3.17;;;13.80;68.00;;;;;;5034152;28;20423;-66
2022/01/02 09:34:48;;;;;;;31.60;13.95;;;13.80;68.90;;;;;;5034691;28;20029;-66
2022/01/02 09:37:14;;;;;;;65.35;26.00;;;13.50;70.70;;;;;;5030287;28;20033;-66
2022/01/02 09:39:40;;;;;;;24.38;10.48;;;13.20;72.70;;;;;;5025237;28;20029;-66
2022/01/02 09:42:06;;;;;;;28.17;11.00;;;13.00;70.20;;;;;;5031299;28;20112;-66
2022/01/02 09:44:32;;;;;;;8.02;2.80;;;13.20;70.20;;;;;;5035343;28;20103;-66
2022/01/02 09:46:59;;;;;;;5.32;2.00;;;14.20;67.30;;;;;;5015704;28;20547;-66
2022/01/02 09:49:25;;;;;;;4.93;1.98;;;15.50;65.10;;;;;;5034409;28;20156;-66
2022/01/02 09:51:51;;;;;;;6.68;2.88;;;16.50;63.00;;;;;;5035014;28;20109;-66
2022/01/02 09:54:17;;;;;;;3.50;1.30;;;16.50;64.30;;;;;;5034914;28;20355;-66
2022/01/02 09:56:43;;;;;;;5.25;2.45;;;15.80;62.70;;;;;;5034621;28;20018;-65
2022/01/02 09:59:09;;;;;;;3.38;1.58;;;15.30;70.00;;;;;;5034984;28;20453;-66
2022/01/02 10:01:37;;;;;;;2.95;1.40;;;15.10;64.10;;;;;;5035092;28;20026;-66
2022/01/02 10:04:02;;;;;;;6.43;3.75;;;15.20;61.20;;;;;;5033239;28;20049;-66
2022/01/02 10:06:48;;;;;;;14.27;6.70;;;15.20;67.10;;;;;;5033956;28;20107;-66
2022/01/02 10:09:32;;;;;;;3.72;1.50;;;14.90;67.40;;;;;;5037344;28;20033;-66
2022/01/02 10:12:21;;;;;;;4.97;1.65;;;15.00;61.10;;;;;;5037860;28;20024;-66
2022/01/02 10:15:11;;;;;;;4.05;2.00;;;15.10;61.40;;;;;;5037750;28;20112;-66
2022/01/02 10:18:13;;;;;;;3.22;1.30;;;15.20;59.40;;;;;;5037585;28;20021;-66
2022/01/02 10:20:47;;;;;;;4.60;1.42;;;15.20;59.80;;;;;;5039238;28;20431;-66
2022/01/02 10:23:22;;;;;;;2.55;1.40;;;15.10;60.80;;;;;;5034949;28;20049;-66
2022/01/02 10:25:57;;;;;;;3.10;1.25;;;14.80;60.10;;;;;;5037394;28;20017;-66
2022/01/02 10:28:37;;;;;;;3.38;1.50;;;14.80;60.20;;;;;;5037901;28;20483;-66
2022/01/02 10:31:08;;;;;;;3.47;1.67;;;14.70;60.80;;;;;;5019465;28;20415;-66
2022/01/02 10:33:51;;;;;;;2.55;1.35;;;14.60;62.00;;;;;;5018038;28;20048;-66
2022/01/02 10:36:40;;;;;;;4.18;1.80;;;14.60;60.30;;;;;;5037359;28;20160;-66
2022/01/02 10:39:11;;;;;;;3.40;1.73;;;14.40;61.40;;;;;;5020716;28;20401;-66
2022/01/02 10:41:45;;;;;;;3.45;1.90;;;14.60;61.60;;;;;;5028823;28;20068;-66
2022/01/02 10:44:29;;;;;;;3.65;1.80;;;14.50;62.20;;;;;;5037597;28;20430;-66
2022/01/02 10:47:21;;;;;;;3.97;1.90;;;14.40;61.00;;;;;;5031498;28;20029;-66
2022/01/02 10:49:50;;;;;;;4.43;1.73;;;14.40;61.60;;;;;;5035043;28;20025;-66
2022/01/02 10:52:20;;;;;;;4.55;1.90;;;14.40;59.80;;;;;;5019487;28;20100;-66
2022/01/02 10:54:47;;;;;;;4.82;1.80;;;14.60;59.50;;;;;;5038281;28;20021;-66
2022/01/02 10:57:14;;;;;;;3.72;1.95;;;14.60;60.00;;;;;;5037855;28;20033;-66
2022/01/02 10:59:42;;;;;;;3.65;1.50;;;14.60;59.60;;;;;;5037747;28;20507;-66
2022/01/02 11:02:10;;;;;;;4.78;2.33;;;14.70;60.00;;;;;;5033105;28;20446;-66
2022/01/02 11:04:42;;;;;;;6.28;2.13;;;14.60;60.90;;;;;;5036829;28;20029;-66
2022/01/02 11:07:09;;;;;;;3.20;1.48;;;14.40;62.70;;;;;;5038032;28;20025;-66
2022/01/02 11:09:37;;;;;;;5.13;2.20;;;14.20;60.70;;;;;;5038086;28;20367;-66
2022/01/02 11:12:03;;;;;;;5.25;2.50;;;14.40;61.90;;;;;;5037168;28;20422;-66
2022/01/02 11:14:31;;;;;;;2.63;1.17;;;14.40;62.50;;;;;;5036038;28;20034;-66
2022/01/02 11:16:57;;;;;;;4.40;2.10;;;14.40;60.20;;;;;;5035721;28;20175;-66
2022/01/02 11:19:25;;;;;;;3.67;1.73;;;14.50;61.80;;;;;;5029886;28;20049;-66
2022/01/02 11:21:53;;;;;;;4.88;2.60;;;14.50;60.50;;;;;;5033806;28;20025;-66
2022/01/02 11:24:27;;;;;;;3.58;1.75;;;14.40;62.70;;;;;;5036960;28;20065;-67
2022/01/02 11:27:36;;;;;;;3.70;1.57;;;14.40;61.30;;;;;;5032876;28;20040;-66
2022/01/02 11:30:37;;;;;;;5.00;2.60;;;14.30;61.20;;;;;;4986899;28;20338;-66
2022/01/02 11:33:14;;;;;;;4.30;1.85;;;14.30;61.70;;;;;;5020859;28;20335;-66
2022/01/02 11:35:47;;;;;;;4.40;2.10;;;14.10;61.90;;;;;;5037858;28;20014;-66
2022/01/02 11:38:15;;;;;;;5.40;2.28;;;14.10;61.50;;;;;;5034471;28;20035;-66
2022/01/02 11:40:53;;;;;;;4.47;1.83;;;14.10;61.50;;;;;;5035552;28;20072;-66
2022/01/02 11:43:50;;;;;;;8.85;4.55;;;14.20;60.80;;;;;;5031930;28;20291;-66
2022/01/02 11:46:30;;;;;;;5.93;2.08;;;14.30;60.80;;;;;;5029118;28;20030;-66
2022/01/02 11:49:05;;;;;;;5.13;2.53;;;14.40;59.50;;;;;;5035128;28;20036;-66
2022/01/02 11:51:56;;;;;;;4.10;2.20;;;14.50;61.10;;;;;;5028348;28;20026;-66
2022/01/02 11:54:40;;;;;;;5.65;3.08;;;14.40;62.00;;;;;;5027968;28;20453;-66
2022/01/02 11:57:14;;;;;;;5.63;2.80;;;14.40;63.20;;;;;;5030939;28;20096;-65
2022/01/02 11:59:40;;;;;;;5.13;2.80;;;14.20;63.40;;;;;;5030934;28;20021;-66
2022/01/02 12:02:21;;;;;;;5.05;2.53;;;14.10;63.80;;;;;;5031070;28;20047;-66
2022/01/02 12:05:02;;;;;;;7.35;2.70;;;13.90;65.00;;;;;;5017521;28;20025;-66
2022/01/02 12:07:37;;;;;;;5.32;2.50;;;13.90;65.30;;;;;;5027679;28;20150;-66
2022/01/02 12:10:20;;;;;;;7.03;3.20;;;14.00;64.70;;;;;;5033833;28;20344;-66
2022/01/02 12:13:10;;;;;;;5.57;2.70;;;14.30;65.10;;;;;;5028777;28;20026;-66
2022/01/02 12:15:41;;;;;;;4.97;2.42;;;14.50;64.30;;;;;;5027357;28;20025;-65
2022/01/02 12:18:25;;;;;;;6.55;3.60;;;14.70;64.50;;;;;;5027078;28;20096;-66
2022/01/02 12:20:56;;;;;;;5.70;2.80;;;14.60;65.60;;;;;;5032218;28;20038;-66
2022/01/02 12:23:34;;;;;;;5.95;2.90;;;14.50;65.40;;;;;;5029668;28;20032;-66
2022/01/02 12:26:18;;;;;;;4.75;2.35;;;14.60;65.00;;;;;;5015800;28;20346;-66
2022/01/02 12:29:01;;;;;;;7.65;2.17;;;14.70;65.00;;;;;;5034391;28;20033;-66
2022/01/02 12:31:36;;;;;;;4.75;2.35;;;14.80;63.70;;;;;;5030878;28;20017;-66
2022/01/02 12:34:22;;;;;;;5.15;2.53;;;15.00;64.10;;;;;;5035087;28;20048;-66
2022/01/02 12:36:51;;;;;;;3.67;1.83;;;15.30;63.40;;;;;;5022861;28;20029;-66
2022/01/02 12:39:34;;;;;;;4.50;1.83;;;15.30;63.40;;;;;;5034099;28;20025;-66
2022/01/02 12:42:11;;;;;;;4.07;1.73;;;15.10;63.80;;;;;;5026941;28;20450;-66
2022/01/02 12:44:39;;;;;;;3.63;1.60;;;14.90;63.80;;;;;;5031982;28;20041;-66
2022/01/02 12:47:07;;;;;;;5.10;1.92;;;14.50;65.20;;;;;;5026578;28;20029;-67
2022/01/02 12:49:40;;;;;;;7.43;2.00;;;14.20;66.70;;;;;;5028706;28;20026;-67
2022/01/02 12:52:12;;;;;;;4.32;1.70;;;14.20;68.30;;;;;;5030588;28;20036;-66
2022/01/02 12:54:43;;;;;;;7.28;2.97;;;14.30;68.30;;;;;;5036681;28;20021;-66
2022/01/02 12:57:14;;;;;;;7.63;2.30;;;14.40;67.90;;;;;;5036046;28;20021;-66
2022/01/02 12:59:42;;;;;;;5.47;1.80;;;14.50;68.60;;;;;;5036125;28;20080;-66
2022/01/02 13:02:14;;;;;;;4.65;1.80;;;14.70;68.30;;;;;;5034217;28;20033;-66
2022/01/02 13:05:00;;;;;;;4.93;1.80;;;15.10;68.20;;;;;;5036020;28;20022;-66
2022/01/02 13:07:32;;;;;;;6.00;2.58;;;15.00;67.80;;;;;;5036488;28;20028;-66
2022/01/02 13:10:03;;;;;;;4.13;1.88;;;14.90;68.30;;;;;;5018408;28;20025;-66
2022/01/02 13:12:35;;;;;;;4.57;1.80;;;14.80;69.40;;;;;;5034905;28;20033;-66
2022/01/02 13:15:07;;;;;;;8.10;2.60;;;14.90;69.90;;;;;;5036378;28;20314;-66